This is the latest recevied weather packets stored in our database for station/object MB7IWY-13. If no packets are shown the sender has not sent any weather packets the latest 10 day(s).
| Time | Temp. | Humidity | Pressure | Rain* | Wind** | Luminosity | Snow |
|---|---|---|---|---|---|---|---|
| 1777051082 | 18.89° C | 29% | 1045 hPa | 0 mm | - | 0 W/m² | - |
| 1777050002 | 18.89° C | 29% | 1045 hPa | 0 mm | - | 0 W/m² | - |
| 1777045502 | 18.89° C | 31% | 1045 hPa | 0 mm | - | 0 W/m² | - |
| 1777044443 | 18.33° C | 33% | 1046.1 hPa | 0 mm | - | 0 W/m² | - |
| 1777043882 | 18.33° C | 33% | 1046.1 hPa | 0 mm | - | 0 W/m² | - |
| 1777043342 | 18.33° C | 33% | 1046.1 hPa | 0 mm | - | 0 W/m² | - |
| 1777040282 | 17.22° C | 35% | 1047.1 hPa | 0 mm | - | 0 W/m² | - |
| 1777038303 | 16.67° C | 36% | 1047.1 hPa | 0 mm | - | 0 W/m² | - |
| 1777034702 | 15° C | 46% | 1047.1 hPa | 0 mm | - | 0 W/m² | - |
| 1777028963 | 12.22° C | 56% | 1049.1 hPa | 0 mm | - | 0 W/m² | - |
| 1777021202 | 7.78° C | 79% | 1049.1 hPa | 0 mm | - | 0 W/m² | - |
| 1777010943 | 2.78° C | 95% | 1050.1 hPa | 0 mm | - | 0 W/m² | - |
| 1777006803 | 2.78° C | 97% | 1050.1 hPa | 0 mm | - | 0 W/m² | - |
| 1777003203 | 3.33° C | 95% | 1051.1 hPa | 0 mm | - | 0 W/m² | - |
| 1777000683 | 3.89° C | 94% | 1051.1 hPa | 0 mm | - | 0 W/m² | - |
| 1776999243 | 4.44° C | 92% | 1051.1 hPa | 0 mm | - | 0 W/m² | - |
| 1776997623 | 4.44° C | 92% | 1051.1 hPa | 0 mm | - | 0 W/m² | - |
| 1776996564 | 4.44° C | 92% | 1051.1 hPa | 0 mm | - | 0 W/m² | - |
| 1776995643 | 4.44° C | 92% | 1051.1 hPa | 0 mm | - | 0 W/m² | - |
| 1776990423 | 4.44° C | 92% | 1052.2 hPa | 0 mm | - | 0 W/m² | - |
| 1776982683 | 6.11° C | 86% | 1053.2 hPa | 0 mm | - | 0 W/m² | - |
| 1776981243 | 7.22° C | 83% | 1053.2 hPa | 0 mm | - | 0 W/m² | - |
| 1776980703 | 7.22° C | 83% | 1053.2 hPa | 0 mm | - | 0 W/m² | - |
| 1776978564 | 7.22° C | 82% | 1052.2 hPa | 0 mm | - | 0 W/m² | - |
| 1776974064 | 10.56° C | 70% | 1052.2 hPa | 0 mm | - | 0 W/m² | - |
* Rain latest hour (hover to see other rain measurements)
** Current wind speed in m/s (hover to see current wind gust speed)